createdAt,value
2023-08-09T00:00:55.099Z,0.00
2023-08-09T00:01:55.116Z,0.00
2023-08-09T00:02:55.068Z,0.00
2023-08-09T00:03:55.126Z,0.00
2023-08-09T00:04:55.073Z,0.00
2023-08-09T00:05:55.056Z,0.00
2023-08-09T00:06:55.013Z,0.00
2023-08-09T00:07:55.026Z,0.00
2023-08-09T00:08:55.015Z,0.00
2023-08-09T00:09:55.010Z,0.00
2023-08-09T00:10:54.979Z,0.00
2023-08-09T00:11:54.989Z,0.00
2023-08-09T00:12:54.934Z,0.00
2023-08-09T00:13:54.963Z,0.00
2023-08-09T00:14:54.917Z,0.00
2023-08-09T00:15:55.003Z,0.00
2023-08-09T00:16:54.906Z,0.00
2023-08-09T00:17:54.927Z,0.00
2023-08-09T00:18:54.912Z,0.00
2023-08-09T00:19:54.890Z,0.00
2023-08-09T00:20:56.349Z,0.00
2023-08-09T00:21:54.860Z,0.00
2023-08-09T00:22:54.815Z,0.00
2023-08-09T00:23:54.825Z,0.00
2023-08-09T00:24:54.801Z,0.00
2023-08-09T00:25:54.787Z,0.00
2023-08-09T00:26:54.768Z,0.00
2023-08-09T00:27:54.828Z,0.00
2023-08-09T00:28:54.748Z,0.00
2023-08-09T00:29:54.750Z,0.00
2023-08-09T00:30:54.729Z,0.00
2023-08-09T00:31:54.734Z,0.00
2023-08-09T00:32:54.727Z,0.00
2023-08-09T00:33:54.677Z,0.00
2023-08-09T00:34:54.645Z,0.00
2023-08-09T00:35:54.692Z,0.00
2023-08-09T00:36:54.630Z,0.00
2023-08-09T00:37:54.645Z,0.00
2023-08-09T00:38:54.589Z,0.00
2023-08-09T00:39:54.606Z,0.00
2023-08-09T00:40:54.579Z,0.00
2023-08-09T00:41:54.582Z,0.00
2023-08-09T00:42:54.561Z,0.00
2023-08-09T00:43:54.557Z,0.00
2023-08-09T00:44:54.517Z,0.00
2023-08-09T00:45:54.545Z,0.00
2023-08-09T00:46:54.482Z,0.00
2023-08-09T00:47:54.537Z,0.00
2023-08-09T00:48:54.451Z,0.00
2023-08-09T00:49:54.482Z,0.00
2023-08-09T00:50:54.434Z,0.00
2023-08-09T00:51:55.065Z,0.00
2023-08-09T00:52:54.420Z,0.00
2023-08-09T00:53:54.438Z,0.00
2023-08-09T00:54:54.411Z,0.00
2023-08-09T00:55:54.394Z,0.00
2023-08-09T00:56:54.359Z,0.00
2023-08-09T00:57:54.355Z,0.00
2023-08-09T00:58:54.358Z,0.00
2023-08-09T00:59:54.363Z,0.00
2023-08-09T01:00:54.352Z,0.00
2023-08-09T01:01:54.343Z,0.00
2023-08-09T01:02:54.390Z,0.00
2023-08-09T01:03:54.321Z,0.00
2023-08-09T01:04:54.263Z,0.00
2023-08-09T01:05:54.273Z,0.00
2023-08-09T01:06:54.236Z,0.00
2023-08-09T01:07:54.250Z,0.00
2023-08-09T01:08:54.222Z,0.00
2023-08-09T01:09:54.235Z,0.00
2023-08-09T01:10:54.173Z,0.00
2023-08-09T01:11:54.196Z,0.00
2023-08-09T01:12:54.172Z,0.00
2023-08-09T01:13:54.173Z,0.00
2023-08-09T01:14:54.109Z,0.00
2023-08-09T01:15:54.262Z,0.00
2023-08-09T01:16:54.099Z,0.00
2023-08-09T01:17:54.178Z,0.00
2023-08-09T01:18:54.067Z,0.00
2023-08-09T01:19:54.107Z,0.00
2023-08-09T01:20:54.029Z,0.00
2023-08-09T01:21:54.060Z,0.00
2023-08-09T01:22:54.005Z,0.00
2023-08-09T01:23:54.016Z,0.00
2023-08-09T01:24:54.035Z,0.00
2023-08-09T01:25:54.027Z,0.00
2023-08-09T01:26:53.955Z,0.00
2023-08-09T01:27:53.969Z,0.00
2023-08-09T01:28:53.927Z,0.00
2023-08-09T01:29:53.954Z,0.00
2023-08-09T01:30:53.953Z,0.00
2023-08-09T01:31:53.913Z,0.00
2023-08-09T01:32:53.889Z,0.00
2023-08-09T01:33:53.906Z,0.00
2023-08-09T01:34:53.840Z,0.00
2023-08-09T01:35:53.878Z,0.00
2023-08-09T01:36:53.817Z,0.00
2023-08-09T01:37:53.846Z,0.00
2023-08-09T01:38:53.804Z,0.00
2023-08-09T01:39:53.819Z,0.00
2023-08-09T01:40:53.783Z,0.00
2023-08-09T01:41:53.785Z,0.00
2023-08-09T01:42:53.757Z,0.00
2023-08-09T01:43:53.752Z,0.00
2023-08-09T01:44:53.723Z,0.00
2023-08-09T01:45:53.725Z,0.00
2023-08-09T01:46:53.708Z,0.00
2023-08-09T01:47:53.748Z,0.00
2023-08-09T01:48:53.670Z,0.00
2023-08-09T01:49:53.696Z,0.00
2023-08-09T01:50:54.544Z,0.00
2023-08-09T01:51:53.680Z,0.00
2023-08-09T01:52:53.671Z,0.00
2023-08-09T01:53:53.629Z,0.00
2023-08-09T01:54:53.583Z,0.00
2023-08-09T01:55:53.634Z,0.00
2023-08-09T01:56:53.546Z,0.00
2023-08-09T01:57:53.569Z,0.00
2023-08-09T01:58:53.546Z,0.00
2023-08-09T01:59:53.536Z,0.00
2023-08-09T02:00:53.623Z,0.00
2023-08-09T02:01:53.499Z,0.00
2023-08-09T02:02:53.533Z,0.00
2023-08-09T02:03:53.490Z,0.00
2023-08-09T02:04:53.465Z,0.00
2023-08-09T02:05:53.475Z,0.00
2023-08-09T02:06:53.421Z,0.00
2023-08-09T02:07:53.452Z,0.00
2023-08-09T02:08:53.422Z,0.00
2023-08-09T02:09:53.403Z,0.00
2023-08-09T02:10:53.379Z,0.00
2023-08-09T02:11:53.411Z,0.00
2023-08-09T02:12:53.342Z,0.00
2023-08-09T02:13:53.352Z,0.00
2023-08-09T02:14:53.316Z,0.00
2023-08-09T02:15:53.337Z,0.00
2023-08-09T02:16:53.331Z,0.00
2023-08-09T02:17:53.377Z,0.00
2023-08-09T02:18:53.298Z,0.00
2023-08-09T02:19:53.280Z,0.00
2023-08-09T02:20:53.252Z,0.00
2023-08-09T02:21:53.298Z,0.00
2023-08-09T02:22:53.215Z,0.00
2023-08-09T02:23:53.249Z,0.00
2023-08-09T02:24:53.188Z,0.00
2023-08-09T02:25:53.206Z,0.00
2023-08-09T02:26:53.149Z,0.00
2023-08-09T02:27:53.175Z,0.00
2023-08-09T02:28:53.172Z,0.00
2023-08-09T02:29:53.157Z,0.00
2023-08-09T02:30:53.153Z,0.00
2023-08-09T02:31:53.129Z,0.00
2023-08-09T02:32:53.118Z,0.00
2023-08-09T02:33:53.113Z,0.00
2023-08-09T02:34:53.073Z,0.00
2023-08-09T02:35:53.114Z,0.00
2023-08-09T02:36:53.050Z,0.00
2023-08-09T02:37:53.030Z,0.00
2023-08-09T02:38:52.999Z,0.00
2023-08-09T02:39:53.035Z,0.00
2023-08-09T02:40:52.991Z,0.00
2023-08-09T02:41:52.999Z,0.00
2023-08-09T02:42:52.985Z,0.00
2023-08-09T02:43:52.948Z,0.00
2023-08-09T02:44:52.993Z,0.00
2023-08-09T02:45:53.043Z,0.00
2023-08-09T02:46:52.884Z,0.00
2023-08-09T02:47:52.960Z,0.00
2023-08-09T02:48:52.938Z,0.00
2023-08-09T02:49:52.881Z,0.00
2023-08-09T02:50:52.852Z,0.00
2023-08-09T02:51:52.891Z,0.00
2023-08-09T02:52:52.822Z,0.00
2023-08-09T02:53:52.818Z,0.00
2023-08-09T02:54:52.783Z,0.00
2023-08-09T02:55:52.810Z,0.00
2023-08-09T02:56:52.782Z,0.00
2023-08-09T02:57:52.785Z,0.00
2023-08-09T02:58:52.724Z,0.00
2023-08-09T02:59:52.742Z,0.00
2023-08-09T03:00:52.734Z,0.00
2023-08-09T03:01:52.742Z,0.00
2023-08-09T03:02:52.809Z,0.00
2023-08-09T03:03:52.777Z,0.00
2023-08-09T03:04:52.667Z,0.00
2023-08-09T03:05:52.679Z,0.00
2023-08-09T03:06:52.666Z,0.00
2023-08-09T03:07:52.668Z,0.00
2023-08-09T03:08:52.599Z,0.00
2023-08-09T03:09:53.670Z,0.00
2023-08-09T03:10:52.582Z,0.00
2023-08-09T03:11:52.596Z,0.00
2023-08-09T03:12:52.605Z,0.00
2023-08-09T03:13:52.568Z,0.00
2023-08-09T03:14:52.530Z,0.00
2023-08-09T03:15:52.618Z,0.00
2023-08-09T03:16:52.491Z,0.00
2023-08-09T03:17:52.559Z,0.00
2023-08-09T03:18:52.486Z,0.00
2023-08-09T03:19:52.483Z,0.00
2023-08-09T03:20:52.446Z,0.00
2023-08-09T03:21:52.461Z,0.00
2023-08-09T03:22:52.440Z,0.00
2023-08-09T03:23:52.430Z,0.00
2023-08-09T03:24:52.407Z,0.00
2023-08-09T03:25:52.413Z,0.00
2023-08-09T03:26:52.396Z,0.00
2023-08-09T03:27:52.383Z,0.00
2023-08-09T03:28:52.356Z,0.00
2023-08-09T03:29:52.354Z,0.00
2023-08-09T03:30:52.316Z,0.00
2023-08-09T03:31:52.379Z,0.00
2023-08-09T03:32:52.367Z,0.00
2023-08-09T03:33:52.283Z,0.00
2023-08-09T03:34:52.279Z,0.00
2023-08-09T03:35:52.272Z,0.00
2023-08-09T03:36:52.224Z,0.00
2023-08-09T03:37:52.252Z,0.00
2023-08-09T03:38:52.191Z,0.00
2023-08-09T03:39:52.235Z,0.00
2023-08-09T03:40:52.186Z,0.00
2023-08-09T03:41:52.175Z,0.00
2023-08-09T03:42:52.144Z,0.00
2023-08-09T03:43:52.162Z,0.00
2023-08-09T03:44:52.148Z,0.00
2023-08-09T03:45:52.196Z,0.00
2023-08-09T03:46:52.099Z,0.00
2023-08-09T03:47:52.122Z,0.00
2023-08-09T03:48:52.096Z,0.00
2023-08-09T03:49:52.109Z,0.00
2023-08-09T03:50:52.073Z,0.00
2023-08-09T03:51:52.064Z,0.00
2023-08-09T03:52:52.005Z,0.00
2023-08-09T03:53:52.033Z,0.00
2023-08-09T03:54:52.026Z,0.00
2023-08-09T03:55:52.010Z,0.00
2023-08-09T03:56:51.959Z,0.00
2023-08-09T03:57:51.977Z,0.00
2023-08-09T03:58:51.940Z,0.00
2023-08-09T03:59:51.987Z,0.00
2023-08-09T04:00:51.904Z,0.00
2023-08-09T04:01:51.933Z,0.00
2023-08-09T04:02:51.989Z,0.00
2023-08-09T04:03:51.930Z,0.00
2023-08-09T04:04:51.921Z,0.00
2023-08-09T04:05:51.845Z,0.00
2023-08-09T04:06:51.888Z,0.00
2023-08-09T04:07:51.828Z,0.00
2023-08-09T04:08:51.860Z,0.00
2023-08-09T04:09:51.813Z,4.00
2023-08-09T04:10:51.793Z,0.00
2023-08-09T04:11:51.791Z,0.00
2023-08-09T04:12:51.775Z,0.00
2023-08-09T04:13:51.744Z,0.00
2023-08-09T04:14:51.764Z,0.00
2023-08-09T04:15:51.735Z,4.00
2023-08-09T04:16:51.729Z,0.00
2023-08-09T04:17:51.702Z,0.00
2023-08-09T04:18:51.720Z,4.00
2023-08-09T04:19:51.655Z,4.00
2023-08-09T04:20:51.674Z,0.00
2023-08-09T04:21:51.684Z,4.00
2023-08-09T04:22:51.657Z,0.00
2023-08-09T04:23:51.607Z,4.00
2023-08-09T04:24:51.639Z,0.00
2023-08-09T04:25:51.607Z,0.00
2023-08-09T04:26:51.605Z,0.00
2023-08-09T04:27:51.558Z,4.00
2023-08-09T04:28:51.582Z,4.00
2023-08-09T04:29:51.527Z,0.00
2023-08-09T04:30:51.568Z,4.00
2023-08-09T04:31:51.556Z,4.00
2023-08-09T04:32:51.546Z,4.00
2023-08-09T04:33:51.494Z,4.00
2023-08-09T04:34:51.508Z,8.00
2023-08-09T04:35:51.480Z,4.00
2023-08-09T04:36:51.474Z,4.00
2023-08-09T04:37:51.451Z,4.00
2023-08-09T04:38:51.434Z,8.00
2023-08-09T04:39:51.397Z,8.00
2023-08-09T04:40:51.449Z,8.00
2023-08-09T04:41:51.379Z,8.00
2023-08-09T04:42:51.406Z,12.00
2023-08-09T04:43:51.343Z,12.00
2023-08-09T04:44:51.371Z,8.00
2023-08-09T04:45:51.446Z,8.00
2023-08-09T04:46:51.320Z,8.00
2023-08-09T04:47:51.356Z,8.00
2023-08-09T04:48:51.316Z,8.00
2023-08-09T04:49:51.260Z,8.00
2023-08-09T04:50:52.799Z,12.00
2023-08-09T04:51:51.260Z,8.00
2023-08-09T04:52:51.290Z,8.00
2023-08-09T04:53:51.229Z,8.00
2023-08-09T04:54:51.253Z,8.00
2023-08-09T04:55:51.217Z,12.00
2023-08-09T04:56:51.190Z,8.00
2023-08-09T04:57:51.169Z,8.00
2023-08-09T04:58:51.162Z,8.00
2023-08-09T04:59:51.128Z,12.00
2023-08-09T05:00:51.152Z,12.00
2023-08-09T05:01:51.134Z,8.00
2023-08-09T05:02:51.152Z,12.00
2023-08-09T05:03:51.068Z,12.00
2023-08-09T05:04:51.140Z,12.00
2023-08-09T05:05:51.053Z,16.00
2023-08-09T05:06:51.070Z,16.00
2023-08-09T05:07:51.045Z,16.00
2023-08-09T05:08:51.035Z,16.00
2023-08-09T05:09:51.000Z,16.00
2023-08-09T05:10:53.240Z,20.00
2023-08-09T05:11:50.972Z,16.00
2023-08-09T05:12:50.974Z,16.00
2023-08-09T05:13:50.971Z,20.00
2023-08-09T05:14:50.961Z,20.00
2023-08-09T05:15:50.934Z,20.00
2023-08-09T05:16:50.979Z,20.00
2023-08-09T05:17:50.917Z,24.00
2023-08-09T05:18:50.926Z,24.00
2023-08-09T05:19:50.851Z,24.00
2023-08-09T05:20:50.892Z,24.00
2023-08-09T05:21:50.840Z,28.00
2023-08-09T05:22:50.866Z,28.00
2023-08-09T05:23:50.813Z,32.00
2023-08-09T05:24:50.816Z,32.00
2023-08-09T05:25:50.824Z,36.00
2023-08-09T05:26:50.814Z,36.00
2023-08-09T05:27:50.774Z,32.00
2023-08-09T05:28:50.769Z,28.00
2023-08-09T05:29:50.747Z,28.00
2023-08-09T05:30:50.881Z,28.00
2023-08-09T05:31:50.706Z,20.00
2023-08-09T05:32:50.767Z,20.00
2023-08-09T05:33:50.667Z,20.00
2023-08-09T05:34:50.705Z,16.00
2023-08-09T05:35:50.664Z,20.00
2023-08-09T05:36:50.681Z,16.00
2023-08-09T05:37:50.655Z,16.00
2023-08-09T05:38:50.647Z,20.00
2023-08-09T05:39:50.623Z,16.00
2023-08-09T05:40:50.610Z,20.00
2023-08-09T05:41:50.576Z,24.00
2023-08-09T05:42:50.579Z,24.00
2023-08-09T05:43:50.577Z,24.00
2023-08-09T05:44:50.539Z,28.00
2023-08-09T05:45:50.506Z,28.00
2023-08-09T05:46:50.554Z,32.00
2023-08-09T05:47:50.589Z,36.00
2023-08-09T05:48:50.526Z,40.00
2023-08-09T05:49:50.462Z,44.00
2023-08-09T05:50:50.496Z,44.00
2023-08-09T05:51:50.432Z,48.00
2023-08-09T05:52:50.460Z,52.00
2023-08-09T05:53:50.423Z,56.00
2023-08-09T05:54:50.418Z,56.00
2023-08-09T05:55:50.389Z,60.00
2023-08-09T05:56:50.386Z,64.00
2023-08-09T05:57:50.358Z,68.00
2023-08-09T05:58:50.375Z,72.00
2023-08-09T05:59:50.376Z,80.00
2023-08-09T06:00:50.431Z,88.00
2023-08-09T06:01:50.309Z,92.00
2023-08-09T06:02:50.451Z,92.00
2023-08-09T06:03:50.384Z,84.00
2023-08-09T06:04:50.290Z,80.00
2023-08-09T06:05:50.258Z,80.00
2023-08-09T06:06:50.254Z,68.00
2023-08-09T06:07:50.233Z,68.00
2023-08-09T06:08:50.278Z,68.00
2023-08-09T06:09:50.195Z,72.00
2023-08-09T06:10:50.230Z,80.00
2023-08-09T06:11:50.168Z,76.00
2023-08-09T06:12:50.176Z,72.00
2023-08-09T06:13:50.149Z,64.00
2023-08-09T06:14:50.184Z,60.00
2023-08-09T06:15:50.172Z,56.00
2023-08-09T06:16:50.168Z,56.00
2023-08-09T06:17:50.155Z,48.00
2023-08-09T06:18:50.140Z,52.00
2023-08-09T06:19:50.077Z,52.00
2023-08-09T06:20:50.066Z,48.00
2023-08-09T06:21:50.041Z,40.00
2023-08-09T06:22:50.079Z,36.00
2023-08-09T06:23:50.065Z,32.00
2023-08-09T06:24:50.037Z,28.00
2023-08-09T06:25:50.035Z,24.00
2023-08-09T06:26:49.993Z,24.00
2023-08-09T06:27:49.976Z,24.00
2023-08-09T06:28:50.012Z,28.00
2023-08-09T06:29:49.917Z,28.00
2023-08-09T06:30:49.984Z,28.00
2023-08-09T06:31:49.962Z,28.00
2023-08-09T06:32:49.998Z,28.00
2023-08-09T06:33:49.873Z,28.00
2023-08-09T06:34:49.937Z,32.00
2023-08-09T06:35:49.889Z,28.00
2023-08-09T06:36:49.880Z,32.00
2023-08-09T06:37:53.214Z,36.00
2023-08-09T06:38:49.834Z,40.00
2023-08-09T06:39:49.813Z,40.00
2023-08-09T06:40:49.818Z,44.00
2023-08-09T06:41:49.787Z,44.00
2023-08-09T06:42:49.787Z,48.00
2023-08-09T06:43:49.744Z,52.00
2023-08-09T06:44:49.765Z,56.00
2023-08-09T06:45:49.719Z,52.00
2023-08-09T06:46:49.738Z,48.00
2023-08-09T06:47:49.714Z,44.00
2023-08-09T06:48:49.735Z,40.00
2023-08-09T06:49:49.678Z,44.00
2023-08-09T06:50:49.705Z,40.00
2023-08-09T06:51:49.655Z,40.00
2023-08-09T06:52:49.656Z,36.00
2023-08-09T06:53:49.771Z,36.00
2023-08-09T06:54:52.947Z,36.00
2023-08-09T06:55:49.593Z,36.00
2023-08-09T06:56:49.598Z,36.00
2023-08-09T06:57:49.572Z,36.00
2023-08-09T06:58:49.573Z,36.00
2023-08-09T06:59:49.530Z,40.00
2023-08-09T07:00:49.559Z,44.00
2023-08-09T07:01:49.614Z,40.00
2023-08-09T07:02:49.762Z,36.00
2023-08-09T07:03:49.495Z,36.00
2023-08-09T07:04:49.471Z,32.00
2023-08-09T07:05:49.444Z,32.00
2023-08-09T07:06:49.472Z,32.00
2023-08-09T07:07:49.423Z,32.00
2023-08-09T07:08:49.444Z,32.00
2023-08-09T07:09:49.400Z,32.00
2023-08-09T07:10:49.428Z,36.00
2023-08-09T07:11:49.394Z,32.00
2023-08-09T07:12:49.381Z,32.00
2023-08-09T07:13:49.329Z,32.00
2023-08-09T07:14:49.397Z,32.00
2023-08-09T07:15:49.326Z,32.00
2023-08-09T07:16:49.330Z,36.00
2023-08-09T07:17:49.307Z,36.00
2023-08-09T07:18:49.320Z,32.00
2023-08-09T07:19:49.259Z,36.00
2023-08-09T07:20:49.300Z,44.00
2023-08-09T07:21:49.245Z,48.00
2023-08-09T07:22:49.256Z,52.00
2023-08-09T07:23:57.458Z,48.00
2023-08-09T07:24:49.246Z,44.00
2023-08-09T07:25:49.190Z,52.00
2023-08-09T07:26:49.227Z,52.00
2023-08-09T07:27:49.151Z,56.00
2023-08-09T07:28:49.170Z,56.00
2023-08-09T07:29:49.188Z,56.00
2023-08-09T07:30:49.177Z,52.00
2023-08-09T07:31:49.164Z,52.00
2023-08-09T07:32:49.238Z,48.00
2023-08-09T07:33:49.106Z,52.00
2023-08-09T07:34:49.089Z,48.00
2023-08-09T07:35:49.080Z,56.00
2023-08-09T07:36:49.061Z,48.00
2023-08-09T07:37:49.030Z,44.00
2023-08-09T07:38:49.056Z,40.00
2023-08-09T07:39:49.010Z,36.00
2023-08-09T07:40:49.020Z,40.00
2023-08-09T07:41:48.984Z,40.00
2023-08-09T07:42:48.992Z,36.00
2023-08-09T07:43:48.960Z,36.00
2023-08-09T07:44:48.985Z,40.00
2023-08-09T07:45:48.969Z,40.00
2023-08-09T07:46:48.968Z,36.00
2023-08-09T07:47:48.931Z,44.00
2023-08-09T07:48:48.923Z,40.00
2023-08-09T07:49:48.873Z,36.00
2023-08-09T07:50:48.888Z,32.00
2023-08-09T07:51:48.870Z,36.00
2023-08-09T07:52:48.871Z,36.00
2023-08-09T07:53:48.812Z,40.00
2023-08-09T07:54:48.861Z,36.00
2023-08-09T07:55:48.804Z,36.00
2023-08-09T07:56:48.804Z,40.00
2023-08-09T07:57:48.774Z,36.00
2023-08-09T07:58:48.774Z,36.00
2023-08-09T07:59:48.785Z,40.00
2023-08-09T08:00:50.699Z,40.00
2023-08-09T08:01:48.817Z,44.00
2023-08-09T08:02:48.721Z,44.00
2023-08-09T08:03:48.756Z,48.00
2023-08-09T08:04:48.741Z,60.00
2023-08-09T08:05:49.389Z,64.00
2023-08-09T08:06:48.694Z,64.00
2023-08-09T08:07:48.637Z,68.00
2023-08-09T08:08:48.645Z,76.00
2023-08-09T08:09:48.640Z,76.00
2023-08-09T08:10:48.649Z,72.00
2023-08-09T08:11:48.575Z,72.00
2023-08-09T08:12:48.622Z,72.00
2023-08-09T08:13:48.566Z,64.00
2023-08-09T08:14:48.580Z,56.00
2023-08-09T08:15:48.609Z,56.00
2023-08-09T08:16:48.520Z,68.00
2023-08-09T08:17:48.599Z,80.00
2023-08-09T08:18:48.490Z,84.00
2023-08-09T08:19:48.526Z,92.00
2023-08-09T08:20:48.488Z,100.00
2023-08-09T08:21:48.498Z,112.00
2023-08-09T08:22:48.472Z,112.00
2023-08-09T08:23:48.461Z,120.00
2023-08-09T08:24:48.412Z,132.00
2023-08-09T08:25:48.433Z,136.00
2023-08-09T08:26:48.378Z,140.00
2023-08-09T08:27:48.433Z,144.00
2023-08-09T08:28:48.431Z,136.00
2023-08-09T08:29:48.376Z,124.00
2023-08-09T08:30:48.350Z,108.00
2023-08-09T08:31:48.374Z,116.00
2023-08-09T08:32:48.352Z,120.00
2023-08-09T08:33:48.335Z,120.00
2023-08-09T08:34:48.323Z,124.00
2023-08-09T08:35:49.043Z,120.00
2023-08-09T08:36:48.309Z,124.00
2023-08-09T08:37:48.311Z,128.00
2023-08-09T08:38:48.240Z,116.00
2023-08-09T08:39:48.246Z,116.00
2023-08-09T08:40:48.260Z,116.00
2023-08-09T08:41:48.234Z,112.00
2023-08-09T08:42:48.174Z,120.00
2023-08-09T08:43:48.189Z,124.00
2023-08-09T08:44:48.182Z,128.00
2023-08-09T08:45:48.191Z,124.00
2023-08-09T08:46:48.150Z,120.00
2023-08-09T08:47:48.243Z,124.00
2023-08-09T08:48:48.111Z,124.00
2023-08-09T08:49:48.117Z,120.00
2023-08-09T08:50:48.109Z,112.00
2023-08-09T08:51:48.088Z,112.00
2023-08-09T08:52:48.079Z,104.00
2023-08-09T08:53:48.065Z,92.00
2023-08-09T08:54:48.033Z,96.00
2023-08-09T08:55:48.054Z,100.00
2023-08-09T08:56:47.993Z,100.00
2023-08-09T08:57:48.024Z,88.00
2023-08-09T08:58:47.954Z,84.00
2023-08-09T08:59:47.987Z,92.00
2023-08-09T09:00:47.966Z,96.00
2023-08-09T09:01:48.036Z,100.00
2023-08-09T09:02:47.965Z,100.00
2023-08-09T09:03:47.944Z,104.00
2023-08-09T09:04:47.882Z,116.00
2023-08-09T09:05:47.939Z,124.00
2023-08-09T09:06:47.870Z,132.00
2023-08-09T09:07:47.906Z,128.00
2023-08-09T09:08:47.862Z,132.00
2023-08-09T09:09:47.841Z,128.00
2023-08-09T09:10:47.807Z,124.00
2023-08-09T09:11:47.843Z,124.00
2023-08-09T09:12:47.799Z,120.00
2023-08-09T09:13:47.837Z,124.00
2023-08-09T09:14:47.751Z,128.00
2023-08-09T09:15:47.813Z,116.00
2023-08-09T09:16:47.726Z,104.00
2023-08-09T09:17:47.815Z,100.00
2023-08-09T09:18:47.734Z,96.00
2023-08-09T09:19:47.702Z,104.00
2023-08-09T09:20:47.685Z,116.00
2023-08-09T09:21:47.697Z,120.00
2023-08-09T09:22:47.679Z,120.00
2023-08-09T09:23:47.678Z,120.00
2023-08-09T09:24:47.638Z,120.00
2023-08-09T09:25:47.636Z,120.00
2023-08-09T09:26:47.604Z,120.00
2023-08-09T09:27:47.623Z,108.00
2023-08-09T09:28:47.591Z,100.00
2023-08-09T09:29:47.626Z,96.00
2023-08-09T09:30:47.566Z,104.00
2023-08-09T09:31:47.582Z,116.00
2023-08-09T09:32:47.570Z,124.00
2023-08-09T09:33:47.524Z,124.00
2023-08-09T09:34:47.513Z,124.00
2023-08-09T09:35:47.534Z,124.00
2023-08-09T09:36:47.489Z,128.00
2023-08-09T09:37:47.513Z,132.00
2023-08-09T09:38:47.441Z,136.00
2023-08-09T09:39:47.498Z,136.00
2023-08-09T09:40:47.448Z,144.00
2023-08-09T09:41:47.465Z,144.00
2023-08-09T09:42:47.407Z,140.00
2023-08-09T09:43:47.397Z,144.00
2023-08-09T09:44:47.373Z,140.00
2023-08-09T09:45:47.411Z,152.00
2023-08-09T09:46:47.417Z,164.00
2023-08-09T09:47:47.414Z,168.00
2023-08-09T09:48:47.313Z,152.00
2023-08-09T09:49:47.327Z,140.00
2023-08-09T09:50:47.293Z,128.00
2023-08-09T09:51:47.341Z,140.00
2023-08-09T09:52:47.258Z,156.00
2023-08-09T09:53:47.283Z,172.00
2023-08-09T09:54:47.232Z,176.00
2023-08-09T09:55:47.282Z,156.00
2023-08-09T09:56:47.237Z,148.00
2023-08-09T09:57:47.201Z,148.00
2023-08-09T09:58:47.230Z,140.00
2023-08-09T09:59:47.207Z,144.00
2023-08-09T10:00:47.171Z,160.00
2023-08-09T10:01:47.165Z,168.00
2023-08-09T10:02:47.184Z,168.00
2023-08-09T10:03:52.825Z,196.00
2023-08-09T10:04:47.126Z,236.00
2023-08-09T10:05:47.109Z,276.00
2023-08-09T10:06:47.077Z,276.00
2023-08-09T10:07:47.814Z,252.00
2023-08-09T10:08:47.059Z,232.00
2023-08-09T10:09:47.063Z,216.00
2023-08-09T10:10:47.030Z,208.00
2023-08-09T10:11:47.055Z,200.00
2023-08-09T10:12:47.013Z,204.00
2023-08-09T10:13:46.971Z,216.00
2023-08-09T10:14:47.011Z,236.00
2023-08-09T10:15:46.963Z,260.00
2023-08-09T10:16:47.894Z,272.00
2023-08-09T10:17:46.978Z,272.00
2023-08-09T10:18:46.933Z,248.00
2023-08-09T10:19:46.939Z,248.00
2023-08-09T10:20:46.915Z,292.00
2023-08-09T10:21:46.881Z,364.00
2023-08-09T10:22:46.878Z,376.00
2023-08-09T10:23:46.872Z,380.00
2023-08-09T10:24:46.893Z,388.00
2023-08-09T10:25:46.837Z,472.00
2023-08-09T10:26:46.830Z,436.00
2023-08-09T10:27:46.793Z,412.00
2023-08-09T10:28:46.992Z,440.00
2023-08-09T10:29:46.799Z,440.00
2023-08-09T10:30:46.914Z,444.00
2023-08-09T10:31:46.859Z,444.00
2023-08-09T10:32:46.796Z,444.00
2023-08-09T10:33:46.715Z,440.00
2023-08-09T10:34:46.789Z,400.00
2023-08-09T10:35:46.702Z,316.00
2023-08-09T10:36:46.713Z,288.00
2023-08-09T10:37:46.678Z,300.00
2023-08-09T10:38:48.792Z,300.00
2023-08-09T10:39:46.697Z,268.00
2023-08-09T10:40:46.643Z,240.00
2023-08-09T10:41:46.618Z,248.00
2023-08-09T10:42:46.656Z,276.00
2023-08-09T10:43:46.589Z,228.00
2023-08-09T10:44:46.631Z,196.00
2023-08-09T10:45:46.559Z,164.00
2023-08-09T10:46:46.618Z,192.00
2023-08-09T10:47:46.641Z,256.00
2023-08-09T10:48:46.594Z,316.00
2023-08-09T10:49:46.518Z,364.00
2023-08-09T10:50:50.546Z,404.00
2023-08-09T10:51:46.525Z,412.00
2023-08-09T10:52:46.532Z,400.00
2023-08-09T10:53:46.459Z,404.00
2023-08-09T10:54:46.495Z,376.00
2023-08-09T10:55:46.435Z,452.00
2023-08-09T10:56:46.502Z,412.00
2023-08-09T10:57:46.432Z,404.00
2023-08-09T10:58:46.441Z,372.00
2023-08-09T10:59:46.394Z,380.00
2023-08-09T11:00:46.447Z,388.00
2023-08-09T11:01:46.365Z,384.00
2023-08-09T11:02:46.575Z,360.00
2023-08-09T11:03:46.417Z,344.00
2023-08-09T11:04:46.348Z,356.00
2023-08-09T11:05:46.367Z,356.00
2023-08-09T11:06:46.323Z,344.00
2023-08-09T11:07:46.279Z,336.00
2023-08-09T11:08:46.315Z,320.00
2023-08-09T11:09:46.244Z,296.00
2023-08-09T11:10:46.271Z,276.00
2023-08-09T11:11:46.237Z,248.00
2023-08-09T11:12:46.293Z,228.00
2023-08-09T11:13:56.109Z,232.00
2023-08-09T11:14:46.225Z,240.00
2023-08-09T11:15:46.206Z,264.00
2023-08-09T11:16:46.263Z,276.00
2023-08-09T11:17:46.226Z,260.00
2023-08-09T11:18:46.198Z,236.00
2023-08-09T11:19:46.121Z,180.00
2023-08-09T11:20:46.325Z,176.00
2023-08-09T11:21:46.141Z,180.00
2023-08-09T11:22:46.120Z,196.00
2023-08-09T11:23:46.073Z,180.00
2023-08-09T11:24:46.098Z,176.00
2023-08-09T11:25:46.108Z,176.00
2023-08-09T11:26:46.085Z,176.00
2023-08-09T11:27:46.076Z,204.00
2023-08-09T11:28:46.077Z,216.00
2023-08-09T11:29:45.995Z,216.00
2023-08-09T11:30:46.071Z,216.00
2023-08-09T11:31:45.971Z,208.00
2023-08-09T11:32:46.060Z,192.00
2023-08-09T11:33:45.938Z,192.00
2023-08-09T11:34:45.952Z,188.00
2023-08-09T11:35:46.152Z,164.00
2023-08-09T11:36:45.934Z,192.00
2023-08-09T11:37:45.920Z,208.00
2023-08-09T11:38:45.907Z,204.00
2023-08-09T11:39:45.864Z,200.00
2023-08-09T11:40:46.053Z,204.00
2023-08-09T11:41:45.863Z,196.00
2023-08-09T11:42:45.909Z,212.00
2023-08-09T11:43:45.812Z,228.00
2023-08-09T11:44:45.818Z,260.00
2023-08-09T11:45:45.847Z,288.00
2023-08-09T11:46:45.806Z,284.00
2023-08-09T11:47:45.785Z,276.00
2023-08-09T11:48:45.816Z,264.00
2023-08-09T11:49:45.746Z,240.00
2023-08-09T11:50:45.757Z,236.00
2023-08-09T11:51:45.729Z,224.00
2023-08-09T11:52:45.723Z,224.00
2023-08-09T11:53:45.711Z,228.00
2023-08-09T11:54:45.728Z,248.00
2023-08-09T11:55:45.674Z,272.00
2023-08-09T11:56:45.701Z,276.00
2023-08-09T11:57:46.187Z,268.00
2023-08-09T11:58:45.692Z,316.00
2023-08-09T11:59:45.620Z,320.00
2023-08-09T12:00:45.630Z,320.00
2023-08-09T12:01:45.692Z,296.00
2023-08-09T12:02:45.596Z,296.00
2023-08-09T12:03:45.624Z,304.00
2023-08-09T12:04:45.558Z,304.00
2023-08-09T12:05:53.907Z,268.00
2023-08-09T12:06:45.582Z,248.00
2023-08-09T12:07:45.508Z,236.00
2023-08-09T12:08:45.514Z,236.00
2023-08-09T12:09:45.605Z,240.00
2023-08-09T12:10:45.513Z,248.00
2023-08-09T12:11:45.448Z,252.00
2023-08-09T12:12:45.463Z,256.00
2023-08-09T12:13:45.431Z,264.00
2023-08-09T12:14:45.484Z,268.00
2023-08-09T12:15:45.429Z,280.00
2023-08-09T12:16:45.446Z,276.00
2023-08-09T12:17:45.377Z,276.00
2023-08-09T12:18:45.981Z,280.00
2023-08-09T12:19:45.363Z,296.00
2023-08-09T12:20:45.382Z,288.00
2023-08-09T12:21:45.314Z,276.00
2023-08-09T12:22:45.364Z,276.00
2023-08-09T12:23:45.303Z,288.00
2023-08-09T12:24:45.333Z,276.00
2023-08-09T12:25:45.263Z,280.00
2023-08-09T12:26:45.312Z,272.00
2023-08-09T12:27:45.236Z,268.00
2023-08-09T12:28:45.571Z,268.00
2023-08-09T12:29:45.229Z,272.00
2023-08-09T12:30:45.184Z,272.00
2023-08-09T12:31:45.254Z,268.00
2023-08-09T12:32:45.204Z,284.00
2023-08-09T12:33:45.186Z,268.00
2023-08-09T12:34:45.184Z,288.00
2023-08-09T12:35:45.162Z,268.00
2023-08-09T12:36:45.146Z,256.00
2023-08-09T12:37:45.132Z,260.00
2023-08-09T12:38:45.151Z,264.00
2023-08-09T12:39:45.155Z,268.00
2023-08-09T12:40:45.066Z,260.00
2023-08-09T12:41:45.105Z,264.00
2023-08-09T12:42:45.066Z,252.00
2023-08-09T12:43:45.066Z,248.00
2023-08-09T12:44:45.052Z,264.00
2023-08-09T12:45:45.097Z,244.00
2023-08-09T12:46:45.024Z,236.00
2023-08-09T12:47:45.050Z,244.00
2023-08-09T12:48:45.030Z,248.00
2023-08-09T12:49:45.010Z,252.00
2023-08-09T12:50:44.956Z,264.00
2023-08-09T12:51:44.941Z,280.00
2023-08-09T12:52:47.272Z,276.00
2023-08-09T12:53:44.921Z,276.00